createdAt,value
2023-02-19T00:01:43.796Z,74.78
2023-02-19T00:04:35.617Z,74.19
2023-02-19T00:07:56.346Z,75.44
2023-02-19T00:10:45.328Z,74.94
2023-02-19T00:35:51.579Z,75.42
2023-02-19T00:38:32.091Z,76.09
2023-02-19T00:44:54.936Z,75.64
2023-02-19T00:47:28.464Z,75.41
2023-02-19T00:51:05.727Z,76.24
2023-02-19T00:53:42.064Z,75.81
2023-02-19T00:56:13.487Z,75.94
2023-02-19T00:59:22.932Z,76.81
2023-02-19T01:05:01.294Z,76.17
2023-02-19T01:12:26.927Z,76.15
2023-02-19T01:15:16.482Z,74.89
2023-02-19T01:18:00.041Z,75.76
2023-02-19T01:27:48.169Z,74.83
2023-02-19T01:30:22.264Z,75.19
2023-02-19T01:34:19.464Z,75.74
2023-02-19T01:39:52.903Z,74.64
2023-02-19T01:42:22.655Z,75.00
2023-02-19T01:52:32.500Z,75.28
2023-02-19T01:55:18.404Z,75.40
2023-02-19T01:57:57.618Z,74.95
2023-02-19T02:01:58.358Z,75.01
2023-02-19T02:04:46.730Z,74.88
2023-02-19T02:08:15.526Z,75.70
2023-02-19T02:19:49.331Z,75.63
2023-02-19T02:23:49.817Z,75.59
2023-02-19T02:26:46.146Z,74.97
2023-02-19T02:37:18.786Z,74.74
2023-02-19T02:45:59.534Z,75.62
2023-02-19T02:56:56.555Z,75.37
2023-02-19T02:59:54.879Z,75.45
2023-02-19T03:10:13.325Z,75.21
2023-02-19T03:17:34.818Z,75.69
2023-02-19T03:20:07.621Z,75.71
2023-02-19T03:22:38.884Z,75.31
2023-02-19T03:25:53.778Z,76.18
2023-02-19T03:28:46.404Z,76.49
2023-02-19T03:31:19.011Z,75.32
2023-02-19T03:33:57.749Z,75.17
2023-02-19T03:36:31.705Z,76.58
2023-02-19T03:39:05.411Z,75.87
2023-02-19T03:41:39.300Z,76.01
2023-02-19T03:44:31.283Z,76.05
2023-02-19T03:47:59.239Z,75.94
2023-02-19T03:58:41.043Z,75.52
2023-02-19T04:01:41.161Z,75.80
2023-02-19T04:04:19.227Z,76.09
2023-02-19T04:06:58.487Z,75.03
2023-02-19T04:09:49.274Z,74.18
2023-02-19T04:12:23.158Z,75.61
2023-02-19T04:15:12.271Z,75.22
2023-02-19T04:18:18.444Z,73.70
2023-02-19T04:20:54.818Z,74.37
2023-02-19T04:23:28.704Z,74.40
2023-02-19T04:26:03.371Z,74.68
2023-02-19T04:28:43.590Z,73.66
2023-02-19T04:31:15.972Z,75.03
2023-02-19T04:36:52.827Z,74.29
2023-02-19T04:39:19.671Z,74.30
2023-02-19T04:45:10.011Z,73.22
2023-02-19T04:47:38.790Z,73.98
2023-02-19T04:50:33.223Z,73.75
2023-02-19T04:53:08.508Z,74.37
2023-02-19T04:58:55.087Z,73.57
2023-02-19T05:01:22.781Z,73.74
2023-02-19T05:03:52.818Z,74.78
2023-02-19T05:06:22.672Z,74.43
2023-02-19T05:08:52.028Z,73.75
2023-02-19T05:11:20.296Z,73.77
2023-02-19T05:13:46.935Z,73.50
2023-02-19T05:16:16.473Z,74.68
2023-02-19T05:18:45.000Z,74.34
2023-02-19T05:21:12.895Z,75.13
2023-02-19T05:23:40.368Z,73.98
2023-02-19T05:26:10.142Z,74.06
2023-02-19T05:28:37.680Z,73.93
2023-02-19T05:31:09.831Z,74.20
2023-02-19T05:33:54.752Z,74.55
2023-02-19T05:36:27.871Z,74.13
2023-02-19T05:39:10.476Z,74.01
2023-02-19T05:41:37.301Z,73.95
2023-02-19T05:44:05.423Z,74.09
2023-02-19T05:46:34.714Z,72.95
2023-02-19T05:49:04.356Z,74.26
2023-02-19T05:51:30.969Z,73.27
2023-02-19T05:53:58.469Z,74.53
2023-02-19T05:56:25.352Z,74.02
2023-02-19T05:58:53.460Z,73.84
2023-02-19T06:01:21.941Z,72.97
2023-02-19T06:03:48.724Z,72.80
2023-02-19T06:06:21.379Z,73.24
2023-02-19T06:08:51.393Z,73.88
2023-02-19T06:11:32.633Z,72.71
2023-02-19T06:14:02.957Z,73.17
2023-02-19T06:16:31.036Z,73.30
2023-02-19T06:18:59.034Z,73.07
2023-02-19T06:21:29.786Z,72.95
2023-02-19T06:23:56.490Z,74.00
2023-02-19T06:26:45.014Z,73.21
2023-02-19T06:29:16.237Z,73.07
2023-02-19T06:31:46.497Z,73.51
2023-02-19T06:34:26.786Z,73.88
2023-02-19T06:36:57.878Z,72.86
2023-02-19T06:47:13.792Z,73.50
2023-02-19T06:50:27.339Z,72.88
2023-02-19T06:53:07.674Z,73.17
2023-02-19T06:55:36.144Z,72.99
2023-02-19T06:58:13.657Z,72.79
2023-02-19T07:03:48.423Z,73.92
2023-02-19T07:10:00.051Z,73.18
2023-02-19T07:13:08.070Z,74.13
2023-02-19T07:15:45.508Z,73.26
2023-02-19T07:19:24.697Z,73.88
2023-02-19T07:22:04.368Z,73.07
2023-02-19T07:24:43.502Z,73.94
2023-02-19T08:02:46.621Z,73.33
2023-02-19T08:05:23.555Z,73.12
2023-02-19T08:07:51.470Z,72.81
2023-02-19T08:10:36.564Z,73.46
2023-02-19T08:13:25.380Z,73.61
2023-02-19T08:16:21.774Z,73.62
2023-02-19T08:18:57.966Z,73.38
2023-02-19T08:21:25.168Z,73.45
2023-02-19T08:23:54.494Z,73.65
2023-02-19T08:26:23.892Z,73.75
2023-02-19T08:28:50.967Z,73.19
2023-02-19T08:31:17.920Z,72.88
2023-02-19T08:33:44.582Z,72.38
2023-02-19T08:36:16.577Z,73.19
2023-02-19T08:38:57.420Z,73.39
2023-02-19T08:41:38.609Z,73.44
2023-02-19T08:45:50.338Z,72.98
2023-02-19T08:47:25.306Z,72.39
2023-02-19T08:50:16.046Z,71.59
2023-02-19T08:53:01.828Z,72.15
2023-02-19T08:55:28.882Z,72.12
2023-02-19T09:04:20.491Z,69.17
2023-02-19T09:06:56.272Z,71.63
2023-02-19T09:12:09.836Z,71.01
2023-02-19T09:14:52.293Z,70.69
2023-02-19T09:17:42.332Z,69.82
2023-02-19T09:20:34.620Z,70.66
2023-02-19T09:23:01.231Z,69.30
2023-02-19T09:25:43.260Z,71.67
2023-02-19T09:29:09.197Z,70.53
2023-02-19T09:33:09.436Z,70.58
2023-02-19T09:35:40.783Z,69.73
2023-02-19T09:38:18.472Z,70.12
2023-02-19T09:40:53.879Z,70.37
2023-02-19T09:44:00.613Z,69.50
2023-02-19T09:49:54.410Z,68.48
2023-02-19T09:52:45.511Z,67.11
2023-02-19T09:55:44.900Z,69.17
2023-02-19T09:58:35.166Z,67.74
2023-02-19T10:05:15.370Z,64.31
2023-02-19T10:07:52.851Z,67.79
2023-02-19T10:10:32.215Z,66.02
2023-02-19T10:13:46.945Z,64.92
2023-02-19T10:16:40.744Z,64.08
2023-02-19T10:19:28.520Z,62.68
2023-02-19T10:21:57.260Z,62.13
2023-02-19T10:24:27.457Z,63.37
2023-02-19T10:27:00.628Z,57.32
2023-02-19T10:29:29.478Z,63.37
2023-02-19T10:32:27.070Z,58.91
2023-02-19T10:35:32.974Z,63.29
2023-02-19T10:38:25.487Z,60.88
2023-02-19T10:41:15.443Z,58.13
2023-02-19T11:06:54.003Z,55.90
2023-02-19T11:09:35.066Z,57.28
2023-02-19T11:12:04.338Z,57.42
2023-02-19T11:14:35.090Z,56.96
2023-02-19T11:17:10.865Z,54.97
2023-02-19T11:19:42.735Z,54.83
2023-02-19T11:22:47.653Z,53.45
2023-02-19T11:25:14.624Z,54.86
2023-02-19T11:28:17.346Z,49.80
2023-02-19T11:30:55.181Z,52.08
2023-02-19T11:33:53.319Z,52.73
2023-02-19T11:39:48.785Z,52.78
2023-02-19T11:43:08.818Z,46.78
2023-02-19T11:45:48.862Z,49.29
2023-02-19T11:48:29.600Z,51.24
2023-02-19T11:55:22.199Z,51.43
2023-02-19T11:58:04.709Z,50.68
2023-02-19T12:00:39.248Z,52.34
2023-02-19T12:03:47.644Z,48.16
2023-02-19T12:06:33.199Z,48.00
2023-02-19T12:12:50.777Z,48.03
2023-02-19T12:15:36.226Z,50.38
2023-02-19T12:18:20.801Z,50.08
2023-02-19T12:21:17.110Z,50.83
2023-02-19T12:23:55.701Z,48.21
2023-02-19T12:26:29.191Z,51.25
2023-02-19T12:29:11.210Z,51.03
2023-02-19T12:32:11.436Z,47.35
2023-02-19T12:34:59.853Z,50.95
2023-02-19T12:37:56.199Z,49.49
2023-02-19T12:40:44.644Z,48.44
2023-02-19T12:43:20.239Z,48.12
2023-02-19T12:46:03.311Z,49.84
2023-02-19T12:48:40.438Z,50.38
2023-02-19T12:51:22.591Z,46.57
2023-02-19T12:54:25.830Z,50.23
2023-02-19T12:57:15.650Z,47.11
2023-02-19T13:03:49.623Z,49.71
2023-02-19T13:06:29.628Z,49.77
2023-02-19T13:09:07.356Z,49.99
2023-02-19T13:12:02.319Z,49.79
2023-02-19T13:14:39.279Z,50.22
2023-02-19T13:18:12.886Z,47.60
2023-02-19T13:21:02.342Z,49.79
2023-02-19T13:23:59.805Z,50.27
2023-02-19T13:31:15.607Z,49.06
2023-02-19T13:34:58.531Z,48.77
2023-02-19T15:34:36.785Z,46.99
2023-02-19T15:37:39.358Z,48.69
2023-02-19T15:40:52.982Z,47.79
2023-02-19T15:43:52.651Z,45.53
2023-02-19T15:47:16.830Z,44.29
2023-02-19T15:54:40.612Z,46.90
2023-02-19T16:01:45.713Z,44.69
2023-02-19T16:40:21.948Z,46.26
2023-02-19T16:43:08.632Z,46.67
2023-02-19T17:48:33.733Z,53.24
2023-02-19T17:56:39.946Z,54.67
2023-02-19T18:01:55.753Z,53.71
2023-02-19T18:04:22.718Z,54.22
2023-02-19T18:06:50.630Z,54.81
2023-02-19T18:09:19.758Z,56.17
2023-02-19T19:02:17.973Z,61.21
2023-02-19T19:04:51.991Z,59.78
2023-02-19T22:03:15.271Z,71.44
2023-02-19T22:06:27.447Z,71.85
2023-02-19T22:31:07.886Z,73.85
